createdAt,value
2019-03-04T00:01:26.937Z,95174.94
2019-03-04T00:06:23.860Z,95174.88
2019-03-04T00:11:22.995Z,95161.37
2019-03-04T00:16:20.100Z,95142.22
2019-03-04T00:21:17.107Z,95137.28
2019-03-04T00:26:14.026Z,95119.76
2019-03-04T00:31:10.994Z,95111.52
2019-03-04T00:36:07.949Z,95107.72
2019-03-04T00:41:04.935Z,95102.20
2019-03-04T00:46:01.857Z,95100.08
2019-03-04T00:50:58.874Z,95096.38
2019-03-04T00:55:55.879Z,95088.20
2019-03-04T01:00:53.695Z,95095.25
2019-03-04T01:05:50.626Z,95104.31
2019-03-04T01:10:47.582Z,95103.01
2019-03-04T01:15:45.906Z,95093.95
2019-03-04T01:20:42.959Z,95086.98
2019-03-04T01:25:39.920Z,95087.02
2019-03-04T01:30:36.854Z,95081.77
2019-03-04T01:35:33.778Z,95085.58
2019-03-04T01:40:31.149Z,95081.71
2019-03-04T01:45:28.053Z,95078.23
2019-03-04T01:50:24.999Z,95087.75
2019-03-04T01:55:21.920Z,95079.14
2019-03-04T02:00:20.634Z,95084.45
2019-03-04T02:05:17.747Z,95068.63
2019-03-04T02:10:18.024Z,95054.83
2019-03-04T02:15:19.822Z,95054.22
2019-03-04T02:20:19.011Z,95054.52
2019-03-04T02:25:42.551Z,95055.45
2019-03-04T02:30:39.578Z,95057.17
2019-03-04T02:35:36.560Z,95046.73
2019-03-04T02:40:33.482Z,95031.28
2019-03-04T02:45:30.459Z,95041.85
2019-03-04T02:50:27.360Z,95035.27
2019-03-04T02:55:24.359Z,95035.77
2019-03-04T03:00:21.369Z,95028.42
2019-03-04T03:05:18.362Z,95012.91
2019-03-04T03:10:15.399Z,94997.34
2019-03-04T03:15:15.059Z,95003.41
2019-03-04T03:20:13.239Z,94985.63
2019-03-04T03:25:13.655Z,94971.13
2019-03-04T03:30:14.698Z,94972.89
2019-03-04T03:35:12.229Z,94970.13
2019-03-04T03:40:18.629Z,94950.20
2019-03-04T03:45:15.643Z,94956.97
2019-03-04T03:50:15.301Z,94952.85
2019-03-04T03:55:14.738Z,94947.52
2019-03-04T04:00:22.555Z,94934.22
2019-03-04T04:05:20.094Z,94936.78
2019-03-04T04:10:18.341Z,94945.75
2019-03-04T04:15:18.098Z,94923.06
2019-03-04T04:20:15.248Z,94922.76
2019-03-04T04:25:12.711Z,94924.98
2019-03-04T04:30:15.234Z,94914.45
2019-03-04T04:35:12.144Z,94927.50
2019-03-04T04:40:13.131Z,94927.41
2019-03-04T04:45:10.261Z,94915.22
2019-03-04T04:50:21.346Z,94913.88
2019-03-04T04:55:18.307Z,94907.36
2019-03-04T05:00:19.714Z,94907.53
2019-03-04T05:05:16.641Z,94901.28
2019-03-04T05:10:19.911Z,94906.90
2019-03-04T05:15:17.237Z,94918.09
2019-03-04T05:20:22.285Z,94925.69
2019-03-04T05:25:19.294Z,94926.92
2019-03-04T05:30:19.430Z,94934.98
2019-03-04T05:35:16.364Z,94928.96
2019-03-04T05:40:15.948Z,94921.16
2019-03-04T05:45:17.170Z,94918.69
2019-03-04T05:50:22.785Z,94906.27
2019-03-04T05:55:19.715Z,94915.67
2019-03-04T06:00:22.739Z,94908.70
2019-03-04T06:05:19.659Z,94902.35
2019-03-04T06:10:16.718Z,94922.67
2019-03-04T06:15:16.746Z,94922.07
2019-03-04T06:20:17.327Z,94924.84
2019-03-04T06:25:23.917Z,94917.31
2019-03-04T06:30:27.573Z,94934.98
2019-03-04T06:35:24.554Z,94918.64
2019-03-04T06:40:22.022Z,94915.67
2019-03-04T06:45:21.895Z,94913.12
2019-03-04T06:50:45.819Z,94903.91
2019-03-04T06:56:06.625Z,94906.00
2019-03-04T07:01:08.990Z,94910.70
2019-03-04T07:06:07.849Z,94902.01
2019-03-04T07:11:08.896Z,94895.95
2019-03-04T07:16:05.911Z,94909.55
2019-03-04T07:21:02.946Z,94892.72
2019-03-04T07:26:03.405Z,94905.19
2019-03-04T07:31:00.514Z,94907.61
2019-03-04T07:35:59.105Z,94901.73
2019-03-04T07:40:56.137Z,94905.09
2019-03-04T07:45:53.118Z,94903.61
2019-03-04T07:50:50.491Z,94900.13
2019-03-04T07:55:47.520Z,94901.67
2019-03-04T08:00:44.535Z,94900.47
2019-03-04T08:05:41.461Z,94902.25
2019-03-04T08:11:23.131Z,94891.70
2019-03-04T08:16:20.068Z,94884.21
2019-03-04T08:21:17.041Z,94877.98
2019-03-04T08:26:14.015Z,94897.16
2019-03-04T08:31:13.277Z,94879.98
2019-03-04T08:36:13.153Z,94875.34
2019-03-04T08:41:11.495Z,94867.88
2019-03-04T08:46:08.452Z,94863.66
2019-03-04T08:51:07.641Z,94871.50
2019-03-04T08:56:04.728Z,94853.47
2019-03-04T09:01:01.829Z,94836.52
2019-03-04T09:06:00.241Z,94852.08
2019-03-04T09:10:57.178Z,94843.80
2019-03-04T09:15:56.267Z,94836.69
2019-03-04T09:20:53.325Z,94846.19
2019-03-04T09:26:03.479Z,94809.73
2019-03-04T09:31:03.330Z,94808.73
2019-03-04T09:36:01.312Z,94813.31
2019-03-04T09:40:58.387Z,94816.39
2019-03-04T09:45:58.572Z,94808.67
2019-03-04T09:50:57.871Z,94800.80
2019-03-04T09:55:55.292Z,94804.94
2019-03-04T10:01:00.662Z,94797.70
2019-03-04T10:06:18.420Z,94773.37
2019-03-04T10:11:37.533Z,94759.47
2019-03-04T10:17:13.595Z,94768.47
2019-03-04T10:22:24.507Z,94756.78
2019-03-04T10:27:52.260Z,94736.53
2019-03-04T10:33:12.625Z,94720.79
2019-03-04T10:38:30.518Z,94715.57
2019-03-04T10:44:03.471Z,94712.75
2019-03-04T10:49:02.292Z,94711.41
2019-03-04T10:53:59.297Z,94705.34
2019-03-04T10:58:58.599Z,94694.80
2019-03-04T11:03:57.565Z,94693.98
2019-03-04T11:08:54.854Z,94673.64
2019-03-04T11:13:51.951Z,94665.89
2019-03-04T11:18:49.002Z,94671.89
2019-03-04T11:23:46.753Z,94677.73
2019-03-04T11:28:43.836Z,94684.34
2019-03-04T11:33:43.631Z,94671.48
2019-03-04T11:38:52.857Z,94653.46
2019-03-04T11:43:50.803Z,94652.48
2019-03-04T11:48:47.846Z,94649.92
2019-03-04T11:53:44.905Z,94625.03
2019-03-04T11:58:42.863Z,94630.20
2019-03-04T12:03:39.874Z,94625.80
2019-03-04T12:08:45.008Z,94612.72
2019-03-04T12:13:44.036Z,94607.19
2019-03-04T12:18:40.971Z,94613.37
2019-03-04T12:23:42.517Z,94629.88
2019-03-04T12:28:39.673Z,94613.58
2019-03-04T12:33:38.018Z,94615.34
2019-03-04T12:38:35.059Z,94605.06
2019-03-04T12:43:33.430Z,94602.49
2019-03-04T12:48:32.889Z,94579.59
2019-03-04T12:53:37.359Z,94571.41
2019-03-04T12:58:30.884Z,94562.14
2019-03-04T13:03:29.834Z,94553.88
2019-03-04T13:08:26.872Z,94544.97
2019-03-04T13:13:23.943Z,94551.98
2019-03-04T13:18:21.067Z,94546.05
2019-03-04T13:23:19.962Z,94558.09
2019-03-04T13:28:25.351Z,94551.55
2019-03-04T13:33:22.357Z,94543.27
2019-03-04T13:38:21.180Z,94542.95
2019-03-04T13:43:18.317Z,94543.77
2019-03-04T13:48:24.998Z,94544.80
2019-03-04T13:53:22.110Z,94534.44
2019-03-04T13:58:24.824Z,94543.48
2019-03-04T14:03:21.816Z,94517.84
2019-03-04T14:08:20.553Z,94514.19
2019-03-04T14:13:17.485Z,94510.08
2019-03-04T14:18:15.081Z,94513.66
2019-03-04T14:23:14.647Z,94506.85
2019-03-04T14:28:16.989Z,94499.38
2019-03-04T14:33:14.100Z,94492.89
2019-03-04T14:38:11.285Z,94506.31
2019-03-04T14:43:08.485Z,94510.71
2019-03-04T14:48:06.797Z,94511.64
2019-03-04T14:53:04.464Z,94502.66
2019-03-04T14:58:02.125Z,94496.58
2019-03-04T15:02:59.368Z,94492.06
2019-03-04T15:07:56.460Z,94496.19
2019-03-04T15:12:53.499Z,94503.67
2019-03-04T15:17:50.712Z,94497.42
2019-03-04T15:22:47.774Z,94486.55
2019-03-04T15:27:45.710Z,94485.08
2019-03-04T15:32:42.826Z,94494.21
2019-03-04T15:37:40.145Z,94492.03
2019-03-04T15:42:37.078Z,94481.95
2019-03-04T15:47:34.096Z,94481.47
2019-03-04T15:52:31.557Z,94478.83
2019-03-04T15:57:28.675Z,94479.44
2019-03-04T16:02:25.855Z,94475.13
2019-03-04T16:07:23.014Z,94456.56
2019-03-04T16:12:21.330Z,94441.55
2019-03-04T16:17:18.624Z,94439.79
2019-03-04T16:22:15.576Z,94428.66
2019-03-04T16:27:12.611Z,94430.37
2019-03-04T16:32:09.638Z,94416.80
2019-03-04T16:37:08.170Z,94403.03
2019-03-04T16:42:05.722Z,94410.28
2019-03-04T16:47:02.929Z,94391.70
2019-03-04T16:52:00.008Z,94382.30
2019-03-04T16:56:58.619Z,94401.72
2019-03-04T17:01:56.536Z,94378.86
2019-03-04T17:06:53.512Z,94371.81
2019-03-04T17:11:50.549Z,94370.68
2019-03-04T17:16:47.648Z,94368.36
2019-03-04T17:21:44.715Z,94354.95
2019-03-04T17:26:41.770Z,94359.43
2019-03-04T17:31:38.867Z,94344.49
2019-03-04T17:36:36.269Z,94350.48
2019-03-04T17:41:33.180Z,94350.53
2019-03-04T17:46:30.313Z,94341.64
2019-03-04T17:51:27.364Z,94339.38
2019-03-04T17:56:24.810Z,94327.95
2019-03-04T18:01:22.224Z,94339.38
2019-03-04T18:06:23.867Z,94321.91
2019-03-04T18:11:20.903Z,94332.83
2019-03-04T18:16:18.557Z,94306.75
2019-03-04T18:21:17.429Z,94302.88
2019-03-04T18:26:19.612Z,94307.81
2019-03-04T18:31:58.881Z,94291.23
2019-03-04T18:37:06.758Z,94292.66
2019-03-04T18:42:45.576Z,94301.34
2019-03-04T18:47:56.666Z,94268.04
2019-03-04T18:52:55.745Z,94280.41
2019-03-04T18:57:52.772Z,94282.64
2019-03-04T19:02:49.788Z,94273.16
2019-03-04T19:07:46.826Z,94276.00
2019-03-04T19:12:43.835Z,94300.14
2019-03-04T19:17:40.936Z,94275.00
2019-03-04T19:22:38.074Z,94278.78
2019-03-04T19:27:35.576Z,94235.48
2019-03-04T19:32:32.645Z,94240.78
2019-03-04T19:37:29.741Z,94234.45
2019-03-04T19:42:26.725Z,94220.64
2019-03-04T19:47:23.763Z,94233.92
2019-03-04T19:52:20.820Z,94215.18
2019-03-04T19:57:18.083Z,94217.66
2019-03-04T20:02:15.481Z,94208.28
2019-03-04T20:07:12.931Z,94196.97
2019-03-04T20:12:10.541Z,94199.33
2019-03-04T20:17:07.621Z,94191.20
2019-03-04T20:22:04.657Z,94174.36
2019-03-04T20:27:01.654Z,94176.20
2019-03-04T20:31:58.909Z,94203.11
2019-03-04T20:36:55.906Z,94191.34
2019-03-04T20:41:52.897Z,94191.84
2019-03-04T20:46:50.185Z,94163.04
2019-03-04T20:51:47.199Z,94157.00
2019-03-04T20:56:44.306Z,94163.30
2019-03-04T21:01:41.330Z,94143.42
2019-03-04T21:06:38.396Z,94136.33
2019-03-04T21:11:35.473Z,94139.64
2019-03-04T21:16:32.512Z,94127.34
2019-03-04T21:21:29.487Z,94111.31
2019-03-04T21:26:27.029Z,94117.11
2019-03-04T21:31:53.559Z,94095.05
2019-03-04T21:37:17.219Z,94071.85
2019-03-04T21:42:31.792Z,94075.05
2019-03-04T21:47:37.084Z,94055.91
2019-03-04T21:52:40.217Z,94033.48
2019-03-04T21:57:43.732Z,94029.73
2019-03-04T22:02:54.900Z,94026.27
2019-03-04T22:07:51.961Z,94036.42
2019-03-04T22:12:49.733Z,94045.65
2019-03-04T22:17:46.802Z,94045.83
2019-03-04T22:22:43.868Z,94050.52
2019-03-04T22:27:40.882Z,94048.34
2019-03-04T22:32:37.887Z,94061.75
2019-03-04T22:37:34.971Z,94063.78
2019-03-04T22:42:32.051Z,94060.45
2019-03-04T22:47:29.189Z,94055.08
2019-03-04T22:52:26.753Z,94030.84
2019-03-04T22:57:23.784Z,93991.44
2019-03-04T23:02:21.621Z,94004.80
2019-03-04T23:07:18.718Z,94011.81
2019-03-04T23:12:30.230Z,94009.13
2019-03-04T23:17:27.279Z,94013.16
2019-03-04T23:22:25.218Z,94024.52
2019-03-04T23:27:22.258Z,94029.22
2019-03-04T23:32:19.320Z,94053.42
2019-03-04T23:37:16.278Z,94114.03
2019-03-04T23:42:13.270Z,94140.85
2019-03-04T23:47:10.215Z,94181.42
2019-03-04T23:52:07.277Z,94211.31
2019-03-04T23:57:07.359Z,94227.10
